Time;durP1;ratioP1;P1;durP2;ratioP2;P2;SDS_P1;SDS_P2;PMS_P1;PMS_P2;Temp;Humidity;BMP_temperature;BMP_pressure;BME280_temperature;BME280_humidity;BME280_pressure;Samples;Min_cycle;Max_cycle;Signal;HPM_P1;HPM_P2
2021/07/30 00:00:05;;;;;;;16.75;6.32;;;;;;;;;;5016233;28;20596;-70
2021/07/30 00:02:31;;;;;;;22.63;7.53;;;;;;;;;;5019827;28;20108;-70
2021/07/30 00:04:57;;;;;;;22.50;7.07;;;;;;;;;;5017287;28;20034;-70
2021/07/30 00:07:25;;;;;;;19.17;7.30;;;;;;;;;;5013237;28;20084;-70
2021/07/30 00:09:51;;;;;;;18.15;7.30;;;;;;;;;;5015112;28;20390;-71
2021/07/30 00:12:18;;;;;;;18.08;6.93;;;;;;;;;;5017259;28;20022;-70
2021/07/30 00:14:44;;;;;;;19.02;6.93;;;;;;;;;;5016504;28;20041;-70
2021/07/30 00:17:10;;;;;;;17.75;7.35;;;;;;;;;;5015004;28;20013;-70
2021/07/30 00:19:36;;;;;;;21.55;7.28;;;;;;;;;;5017046;28;20406;-70
2021/07/30 00:22:02;;;;;;;14.02;6.40;;;;;;;;;;5015829;28;20032;-70
2021/07/30 00:24:28;;;;;;;23.17;7.78;;;;;;;;;;5013592;28;20076;-70
2021/07/30 00:26:54;;;;;;;23.08;6.70;;;;;;;;;;5017280;28;20079;-71
2021/07/30 00:29:20;;;;;;;25.85;7.60;;;;;;;;;;5019282;28;20025;-70
2021/07/30 00:31:47;;;;;;;16.27;6.55;;;;;;;;;;5016759;28;20112;-70
2021/07/30 00:34:13;;;;;;;23.52;7.38;;;;;;;;;;5016195;28;20043;-70
2021/07/30 00:36:39;;;;;;;29.27;7.53;;;;;;;;;;5016118;28;20022;-70
2021/07/30 00:39:05;;;;;;;27.17;7.45;;;;;;;;;;5014800;28;20108;-70
2021/07/30 00:41:39;;;;;;;29.02;8.27;;;;;;;;;;5009747;28;20493;-70
2021/07/30 00:44:05;;;;;;;24.20;6.57;;;;;;;;;;5015381;28;20037;-71
2021/07/30 00:46:32;;;;;;;28.08;8.73;;;;;;;;;;5012129;28;20022;-70
2021/07/30 00:48:58;;;;;;;23.98;7.25;;;;;;;;;;5018500;28;20033;-70
2021/07/30 00:51:25;;;;;;;25.48;6.78;;;;;;;;;;5016809;28;20018;-71
2021/07/30 00:53:51;;;;;;;22.50;7.47;;;;;;;;;;5022486;28;20040;-70
2021/07/30 00:56:17;;;;;;;28.75;6.95;;;;;;;;;;5013179;28;20017;-70
2021/07/30 00:58:44;;;;;;;27.95;6.75;;;;;;;;;;5015991;28;20022;-70
2021/07/30 01:01:10;;;;;;;21.58;6.85;;;;;;;;;;5014096;28;20030;-70
2021/07/30 01:03:37;;;;;;;23.02;5.38;;;;;;;;;;5022494;28;20014;-70
2021/07/30 01:06:03;;;;;;;27.27;6.32;;;;;;;;;;5013833;28;20088;-70
2021/07/30 01:08:30;;;;;;;21.60;5.70;;;;;;;;;;5020535;28;20025;-70
2021/07/30 01:10:56;;;;;;;25.17;6.40;;;;;;;;;;5017426;28;20038;-70
2021/07/30 01:13:22;;;;;;;32.38;7.10;;;;;;;;;;5014372;28;20014;-70
2021/07/30 01:15:48;;;;;;;29.95;6.78;;;;;;;;;;5010921;28;20029;-70
2021/07/30 01:18:14;;;;;;;29.27;7.40;;;;;;;;;;5015447;28;20069;-70
2021/07/30 01:20:43;;;;;;;18.95;6.63;;;;;;;;;;5014881;28;20057;-70
2021/07/30 01:23:10;;;;;;;22.30;6.82;;;;;;;;;;5018373;28;20417;-70
2021/07/30 01:25:36;;;;;;;27.27;6.72;;;;;;;;;;5020334;28;20017;-70
2021/07/30 01:28:02;;;;;;;27.52;7.80;;;;;;;;;;5012513;28;20026;-70
2021/07/30 01:30:28;;;;;;;28.48;7.47;;;;;;;;;;5026072;28;20033;-70
2021/07/30 01:32:55;;;;;;;27.00;7.93;;;;;;;;;;5017059;28;20087;-70
2021/07/30 01:35:21;;;;;;;27.90;8.13;;;;;;;;;;5020392;28;20025;-70
2021/07/30 01:37:47;;;;;;;27.33;8.35;;;;;;;;;;5022467;28;20022;-70
2021/07/30 01:40:14;;;;;;;25.60;9.60;;;;;;;;;;5016100;28;20440;-70
2021/07/30 01:42:41;;;;;;;26.30;9.77;;;;;;;;;;5018628;28;20073;-70
2021/07/30 01:45:08;;;;;;;25.20;9.90;;;;;;;;;;5022974;28;20018;-70
2021/07/30 01:47:35;;;;;;;29.55;9.50;;;;;;;;;;5020782;28;20579;-70
2021/07/30 01:50:01;;;;;;;39.42;9.82;;;;;;;;;;5017695;28;20519;-70
2021/07/30 01:52:27;;;;;;;30.42;10.10;;;;;;;;;;5022780;28;20037;-70
2021/07/30 01:54:53;;;;;;;34.17;10.02;;;;;;;;;;5015355;28;20030;-71
2021/07/30 01:57:19;;;;;;;37.88;10.18;;;;;;;;;;5016087;28;20072;-70
2021/07/30 01:59:46;;;;;;;23.55;9.85;;;;;;;;;;5021361;28;20041;-71
2021/07/30 02:02:12;;;;;;;28.67;10.63;;;;;;;;;;5021462;28;20030;-71
2021/07/30 02:04:38;;;;;;;29.05;10.07;;;;;;;;;;5020935;28;20029;-70
2021/07/30 02:07:04;;;;;;;28.13;10.02;;;;;;;;;;5023217;28;20021;-70
2021/07/30 02:09:31;;;;;;;28.98;9.48;;;;;;;;;;5019469;28;20600;-70
2021/07/30 02:11:57;;;;;;;25.05;9.55;;;;;;;;;;5015751;28;20025;-70
2021/07/30 02:14:25;;;;;;;29.20;8.98;;;;;;;;;;5017998;28;20041;-70
2021/07/30 02:16:53;;;;;;;21.73;8.10;;;;;;;;;;5017898;28;20535;-70
2021/07/30 02:19:20;;;;;;;26.88;8.52;;;;;;;;;;5011882;28;20030;-70
2021/07/30 02:21:47;;;;;;;29.77;8.55;;;;;;;;;;5018925;28;20024;-70
2021/07/30 02:24:13;;;;;;;25.05;8.55;;;;;;;;;;5014309;28;20028;-70
2021/07/30 02:26:39;;;;;;;24.17;8.32;;;;;;;;;;5017437;28;20018;-70
2021/07/30 02:29:06;;;;;;;29.85;8.20;;;;;;;;;;5018418;28;20024;-70
2021/07/30 02:31:32;;;;;;;27.52;8.63;;;;;;;;;;5025380;28;20033;-70
2021/07/30 02:33:58;;;;;;;22.58;7.47;;;;;;;;;;5017789;28;20025;-70
2021/07/30 02:36:24;;;;;;;29.50;7.40;;;;;;;;;;5014025;28;20029;-70
2021/07/30 02:38:51;;;;;;;26.92;7.65;;;;;;;;;;5023717;28;20124;-70
2021/07/30 02:41:17;;;;;;;20.85;7.10;;;;;;;;;;5017276;28;20026;-70
2021/07/30 02:43:44;;;;;;;31.70;8.65;;;;;;;;;;5020666;28;20029;-70
2021/07/30 02:46:11;;;;;;;29.35;10.23;;;;;;;;;;5021875;28;20108;-70
2021/07/30 02:48:37;;;;;;;27.80;9.10;;;;;;;;;;5020488;28;20017;-70
2021/07/30 02:51:03;;;;;;;26.55;8.27;;;;;;;;;;5014487;28;20033;-70
2021/07/30 02:53:30;;;;;;;24.73;8.05;;;;;;;;;;5015167;28;20028;-70
2021/07/30 02:55:56;;;;;;;21.33;8.20;;;;;;;;;;5016217;28;20387;-70
2021/07/30 02:58:22;;;;;;;24.83;7.95;;;;;;;;;;5016897;28;20540;-70
2021/07/30 03:00:48;;;;;;;24.98;7.93;;;;;;;;;;5020267;28;20137;-71
2021/07/30 03:03:15;;;;;;;23.58;7.93;;;;;;;;;;5011614;28;20033;-70
2021/07/30 03:05:41;;;;;;;27.67;7.72;;;;;;;;;;5013015;28;20033;-70
2021/07/30 03:08:07;;;;;;;22.30;8.23;;;;;;;;;;5017959;28;20039;-70
2021/07/30 03:10:33;;;;;;;26.52;9.90;;;;;;;;;;5022778;28;20021;-70
2021/07/30 03:13:00;;;;;;;23.58;9.77;;;;;;;;;;5023290;28;20033;-71
2021/07/30 03:15:26;;;;;;;27.02;9.98;;;;;;;;;;5023279;28;20033;-71
2021/07/30 03:17:52;;;;;;;29.08;10.43;;;;;;;;;;5022907;28;20051;-70
2021/07/30 03:20:18;;;;;;;28.58;9.85;;;;;;;;;;5021389;28;20136;-70
2021/07/30 03:22:44;;;;;;;23.88;10.07;;;;;;;;;;5022929;28;20104;-71
2021/07/30 03:25:10;;;;;;;29.35;10.23;;;;;;;;;;5022819;28;20079;-70
2021/07/30 03:27:37;;;;;;;28.50;9.93;;;;;;;;;;5023347;28;20017;-70
2021/07/30 03:30:03;;;;;;;23.40;9.68;;;;;;;;;;5022978;28;20124;-70
2021/07/30 03:32:29;;;;;;;25.55;9.48;;;;;;;;;;5023138;28;20074;-70
2021/07/30 03:34:55;;;;;;;21.52;10.75;;;;;;;;;;5021119;28;20128;-70
2021/07/30 03:37:21;;;;;;;26.92;10.82;;;;;;;;;;5022680;28;20032;-70
2021/07/30 03:39:47;;;;;;;29.15;12.80;;;;;;;;;;5022870;28;20042;-70
2021/07/30 03:42:14;;;;;;;27.13;11.57;;;;;;;;;;5022415;28;20033;-70
2021/07/30 03:44:40;;;;;;;24.00;11.48;;;;;;;;;;5022482;28;20025;-70
2021/07/30 03:47:06;;;;;;;20.17;11.60;;;;;;;;;;5020970;28;20021;-70
2021/07/30 03:49:32;;;;;;;26.65;11.60;;;;;;;;;;5022609;28;20100;-70
2021/07/30 03:51:58;;;;;;;25.13;12.25;;;;;;;;;;5023120;28;20109;-70
2021/07/30 03:54:24;;;;;;;24.25;10.93;;;;;;;;;;5020455;28;20136;-70
2021/07/30 03:56:51;;;;;;;24.42;12.65;;;;;;;;;;5023172;28;20020;-70
2021/07/30 03:59:17;;;;;;;22.00;10.85;;;;;;;;;;5022467;28;20057;-71
2021/07/30 04:01:49;;;;;;;24.65;10.80;;;;;;;;;;5022055;28;20013;-71
2021/07/30 04:04:15;;;;;;;24.65;10.02;;;;;;;;;;5020499;28;20037;-71
2021/07/30 04:06:43;;;;;;;29.33;11.82;;;;;;;;;;5022402;28;20466;-71
2021/07/30 04:09:12;;;;;;;22.50;10.27;;;;;;;;;;5022645;28;20057;-71
2021/07/30 04:11:39;;;;;;;29.50;10.55;;;;;;;;;;5021948;28;20030;-71
2021/07/30 04:14:05;;;;;;;20.13;9.98;;;;;;;;;;5021732;28;20045;-71
2021/07/30 04:16:33;;;;;;;23.08;9.48;;;;;;;;;;5020492;28;20037;-70
2021/07/30 04:18:59;;;;;;;22.42;10.27;;;;;;;;;;5022317;28;20429;-71
2021/07/30 04:21:25;;;;;;;26.15;9.30;;;;;;;;;;5021541;28;20076;-71
2021/07/30 04:23:51;;;;;;;23.80;8.55;;;;;;;;;;5020623;28;20037;-71
2021/07/30 04:26:17;;;;;;;22.98;9.15;;;;;;;;;;5022213;28;20037;-71
2021/07/30 04:28:43;;;;;;;27.52;9.18;;;;;;;;;;5020261;28;20473;-71
2021/07/30 04:31:10;;;;;;;30.40;9.43;;;;;;;;;;5022167;28;20024;-71
2021/07/30 04:33:36;;;;;;;21.80;9.25;;;;;;;;;;5021447;28;20132;-71
2021/07/30 04:36:02;;;;;;;22.80;9.80;;;;;;;;;;5022268;28;20026;-71
2021/07/30 04:38:28;;;;;;;21.10;9.45;;;;;;;;;;5020028;28;20375;-71
2021/07/30 04:40:54;;;;;;;21.02;8.88;;;;;;;;;;5022226;28;20017;-71
2021/07/30 04:43:20;;;;;;;26.77;9.85;;;;;;;;;;5021909;28;20047;-71
2021/07/30 04:45:46;;;;;;;26.90;9.82;;;;;;;;;;5020003;28;20776;-71
2021/07/30 04:48:13;;;;;;;21.65;8.93;;;;;;;;;;5021525;28;20490;-71
2021/07/30 04:50:39;;;;;;;27.20;8.80;;;;;;;;;;5020122;28;20030;-71
2021/07/30 04:53:05;;;;;;;18.80;8.77;;;;;;;;;;5021657;28;20025;-71
2021/07/30 04:55:31;;;;;;;25.92;9.98;;;;;;;;;;5021232;28;20046;-71
2021/07/30 04:57:58;;;;;;;20.13;10.32;;;;;;;;;;5021853;28;20513;-71
2021/07/30 05:00:24;;;;;;;19.00;10.27;;;;;;;;;;5020277;28;20666;-71
2021/07/30 05:02:54;;;;;;;26.80;10.65;;;;;;;;;;5021043;28;20466;-72
2021/07/30 05:05:20;;;;;;;24.83;11.02;;;;;;;;;;5025619;28;20057;-72
2021/07/30 05:07:46;;;;;;;27.67;13.00;;;;;;;;;;5025201;28;20105;-72
2021/07/30 05:10:12;;;;;;;26.05;12.05;;;;;;;;;;5024813;28;20048;-72
2021/07/30 05:12:38;;;;;;;25.15;12.63;;;;;;;;;;5025766;28;20032;-72
2021/07/30 05:15:06;;;;;;;27.40;13.10;;;;;;;;;;5024920;28;20079;-72
2021/07/30 05:17:32;;;;;;;23.27;13.07;;;;;;;;;;5024160;28;20872;-72
2021/07/30 05:19:58;;;;;;;25.70;12.93;;;;;;;;;;5025672;28;20502;-71
2021/07/30 05:22:24;;;;;;;23.30;12.75;;;;;;;;;;5025371;28;20036;-72
2021/07/30 05:24:50;;;;;;;29.23;12.93;;;;;;;;;;5024697;28;20385;-72
2021/07/30 05:27:16;;;;;;;25.20;13.63;;;;;;;;;;5025196;28;20386;-72
2021/07/30 05:29:42;;;;;;;21.42;12.38;;;;;;;;;;5023824;28;20048;-72
2021/07/30 05:32:09;;;;;;;24.95;12.00;;;;;;;;;;5025226;28;20247;-72
2021/07/30 05:34:35;;;;;;;20.70;12.35;;;;;;;;;;5025104;28;20033;-72
2021/07/30 05:37:01;;;;;;;19.60;12.35;;;;;;;;;;5024634;28;20488;-72
2021/07/30 05:39:30;;;;;;;22.20;11.98;;;;;;;;;;5023842;28;20385;-72
2021/07/30 05:41:56;;;;;;;32.72;12.25;;;;;;;;;;5023722;28;20055;-72
2021/07/30 05:44:22;;;;;;;19.23;11.35;;;;;;;;;;5024264;28;20043;-72
2021/07/30 05:46:48;;;;;;;20.88;12.35;;;;;;;;;;5024672;28;20018;-72
2021/07/30 05:49:14;;;;;;;22.65;10.80;;;;;;;;;;5024839;28;20022;-71
2021/07/30 05:51:40;;;;;;;27.52;13.43;;;;;;;;;;5023536;28;20035;-71
2021/07/30 05:54:06;;;;;;;20.90;11.60;;;;;;;;;;5024284;28;20517;-71
2021/07/30 05:56:33;;;;;;;32.03;11.57;;;;;;;;;;5024023;28;20673;-72
2021/07/30 05:58:59;;;;;;;23.30;11.15;;;;;;;;;;5024606;28;20090;-72
2021/07/30 06:01:25;;;;;;;21.05;12.18;;;;;;;;;;5024161;28;20029;-72
2021/07/30 06:03:52;;;;;;;22.55;11.13;;;;;;;;;;5024488;28;20022;-71
2021/07/30 06:06:18;;;;;;;30.85;10.80;;;;;;;;;;5021552;28;20025;-72
2021/07/30 06:08:44;;;;;;;27.30;11.18;;;;;;;;;;5024430;28;20387;-72
2021/07/30 06:11:11;;;;;;;25.77;11.75;;;;;;;;;;5023993;28;20508;-72
2021/07/30 06:13:37;;;;;;;24.13;11.05;;;;;;;;;;5022427;28;20030;-72
2021/07/30 06:16:03;;;;;;;29.70;13.15;;;;;;;;;;5024187;28;20033;-72
2021/07/30 06:18:29;;;;;;;28.92;11.30;;;;;;;;;;5023952;28;20017;-72
2021/07/30 06:20:55;;;;;;;25.30;11.30;;;;;;;;;;5021490;28;20128;-72
2021/07/30 06:23:21;;;;;;;20.65;11.55;;;;;;;;;;5016722;28;20109;-72
2021/07/30 06:25:47;;;;;;;24.17;11.55;;;;;;;;;;5022563;28;20021;-72
2021/07/30 06:28:14;;;;;;;26.35;12.25;;;;;;;;;;5023819;28;20036;-71
2021/07/30 06:30:40;;;;;;;25.45;11.95;;;;;;;;;;5024026;28;20514;-72
2021/07/30 06:33:10;;;;;;;25.70;12.30;;;;;;;;;;5024196;28;20034;-72
2021/07/30 06:35:36;;;;;;;28.45;12.68;;;;;;;;;;5023780;28;20022;-72
2021/07/30 06:38:02;;;;;;;23.63;12.10;;;;;;;;;;5022126;28;20025;-73
2021/07/30 06:40:29;;;;;;;21.85;12.23;;;;;;;;;;5023875;28;20025;-72
2021/07/30 06:42:55;;;;;;;29.42;13.35;;;;;;;;;;5023956;28;20032;-72
2021/07/30 06:45:21;;;;;;;25.30;12.93;;;;;;;;;;5022480;28;20438;-72
2021/07/30 06:47:47;;;;;;;23.55;11.93;;;;;;;;;;5023160;28;20116;-72
2021/07/30 06:50:13;;;;;;;26.60;11.77;;;;;;;;;;5022028;28;20029;-72
2021/07/30 06:52:39;;;;;;;22.10;11.20;;;;;;;;;;5023496;28;20369;-72
2021/07/30 06:55:06;;;;;;;23.40;11.65;;;;;;;;;;5023629;28;20088;-72
2021/07/30 06:57:32;;;;;;;24.63;11.18;;;;;;;;;;5020918;28;20517;-73
2021/07/30 06:59:58;;;;;;;24.85;9.63;;;;;;;;;;5016954;28;20108;-73
2021/07/30 07:02:24;;;;;;;23.70;9.40;;;;;;;;;;5021060;28;20022;-73
2021/07/30 07:04:51;;;;;;;29.13;10.07;;;;;;;;;;5021163;28;20386;-71
2021/07/30 07:07:17;;;;;;;21.35;8.63;;;;;;;;;;5022525;28;20063;-72
2021/07/30 07:09:43;;;;;;;24.67;9.32;;;;;;;;;;5020119;28;20614;-73
2021/07/30 07:12:09;;;;;;;22.45;8.52;;;;;;;;;;5017966;28;20825;-72
2021/07/30 07:14:35;;;;;;;32.45;8.63;;;;;;;;;;5021858;28;20142;-74
2021/07/30 07:17:02;;;;;;;21.40;8.23;;;;;;;;;;5022284;28;20161;-72
2021/07/30 07:19:28;;;;;;;25.88;8.82;;;;;;;;;;5018819;28;20072;-72
2021/07/30 07:21:54;;;;;;;22.30;10.02;;;;;;;;;;5021891;28;20116;-72
2021/07/30 07:24:20;;;;;;;24.65;11.95;;;;;;;;;;5022500;28;20468;-72
2021/07/30 07:26:47;;;;;;;23.35;11.55;;;;;;;;;;5020816;28;20055;-73
2021/07/30 07:29:13;;;;;;;19.02;10.20;;;;;;;;;;5019564;28;20493;-73
2021/07/30 07:31:39;;;;;;;18.20;8.70;;;;;;;;;;5009529;28;20037;-73
2021/07/30 07:34:05;;;;;;;25.08;8.15;;;;;;;;;;5020841;28;20484;-73
2021/07/30 07:36:31;;;;;;;28.38;9.02;;;;;;;;;;5022094;28;20596;-73
2021/07/30 07:38:57;;;;;;;26.05;8.23;;;;;;;;;;5020830;28;20921;-73
2021/07/30 07:41:25;;;;;;;25.00;8.50;;;;;;;;;;5021679;28;20029;-74
2021/07/30 07:43:51;;;;;;;27.05;8.82;;;;;;;;;;5020133;28;20029;-74
2021/07/30 07:46:17;;;;;;;21.88;8.63;;;;;;;;;;5021506;28;20099;-74
2021/07/30 07:48:43;;;;;;;23.27;8.07;;;;;;;;;;5022001;28;20025;-73
2021/07/30 07:51:09;;;;;;;18.23;8.20;;;;;;;;;;5020416;28;20394;-73
2021/07/30 07:53:35;;;;;;;22.60;8.10;;;;;;;;;;5021400;28;20049;-74
2021/07/30 07:56:03;;;;;;;16.88;6.97;;;;;;;;;;5019960;28;20033;-74
2021/07/30 07:58:32;;;;;;;28.73;7.85;;;;;;;;;;5021560;28;20389;-73
2021/07/30 08:00:59;;;;;;;30.02;8.23;;;;;;;;;;5019335;28;20029;-72
2021/07/30 08:03:25;;;;;;;25.23;8.43;;;;;;;;;;5021487;28;20355;-74
2021/07/30 08:05:52;;;;;;;21.73;10.95;;;;;;;;;;5021779;28;20044;-74
2021/07/30 08:08:18;;;;;;;21.75;10.23;;;;;;;;;;5020239;28;20029;-73
2021/07/30 08:10:44;;;;;;;21.77;10.40;;;;;;;;;;5019469;28;20037;-72
2021/07/30 08:13:12;;;;;;;21.80;11.00;;;;;;;;;;5019844;28;20063;-73
2021/07/30 08:15:41;;;;;;;25.35;10.50;;;;;;;;;;5021193;28;20041;-74
2021/07/30 08:18:07;;;;;;;22.27;10.25;;;;;;;;;;5021506;28;20088;-73
2021/07/30 08:20:33;;;;;;;19.45;10.30;;;;;;;;;;5018313;28;20170;-73
2021/07/30 08:23:00;;;;;;;27.70;10.50;;;;;;;;;;5021271;28;20086;-74
2021/07/30 08:25:27;;;;;;;23.30;10.55;;;;;;;;;;5021483;28;20233;-74
2021/07/30 08:27:53;;;;;;;20.13;10.32;;;;;;;;;;5020610;28;20034;-74
2021/07/30 08:30:19;;;;;;;19.48;10.00;;;;;;;;;;5019321;28;20113;-74
2021/07/30 08:32:46;;;;;;;20.17;9.93;;;;;;;;;;5019846;28;20137;-72
2021/07/30 08:35:12;;;;;;;20.70;10.32;;;;;;;;;;5021271;28;20090;-73
2021/07/30 08:37:38;;;;;;;18.65;10.00;;;;;;;;;;5021148;28;20021;-73
2021/07/30 08:40:06;;;;;;;20.77;10.48;;;;;;;;;;5020570;28;20100;-73
2021/07/30 08:42:36;;;;;;;15.18;10.38;;;;;;;;;;5018962;28;20104;-72
2021/07/30 08:45:03;;;;;;;26.77;10.90;;;;;;;;;;5020308;28;20170;-73
2021/07/30 08:47:29;;;;;;;22.60;11.35;;;;;;;;;;5020704;28;20040;-73
2021/07/30 08:49:56;;;;;;;20.77;10.68;;;;;;;;;;5020759;28;20041;-73
2021/07/30 08:52:26;;;;;;;19.58;10.45;;;;;;;;;;5019187;28;20021;-72
2021/07/30 08:54:52;;;;;;;20.55;10.48;;;;;;;;;;5020491;28;20045;-73
2021/07/30 08:57:18;;;;;;;23.17;10.52;;;;;;;;;;5019777;28;20029;-73
2021/07/30 08:59:45;;;;;;;23.27;10.68;;;;;;;;;;5019921;28;20508;-73
2021/07/30 09:02:11;;;;;;;23.00;10.68;;;;;;;;;;5019636;28;20626;-73
2021/07/30 09:04:38;;;;;;;22.75;10.30;;;;;;;;;;5018862;28;20060;-73
2021/07/30 09:07:04;;;;;;;20.58;9.25;;;;;;;;;;5020962;28;20216;-72
2021/07/30 09:09:31;;;;;;;25.27;11.88;;;;;;;;;;5020239;28;20124;-71
2021/07/30 09:11:58;;;;;;;25.92;10.40;;;;;;;;;;5019964;28;20021;-72
2021/07/30 09:14:38;;;;;;;14.70;10.07;;;;;;;;;;5018442;28;20095;-73
2021/07/30 09:17:05;;;;;;;22.30;9.88;;;;;;;;;;5007837;28;20488;-73
2021/07/30 09:19:32;;;;;;;22.60;9.90;;;;;;;;;;5020189;28;20046;-73
2021/07/30 09:22:04;;;;;;;24.60;9.45;;;;;;;;;;4999557;28;20026;-73
2021/07/30 09:24:39;;;;;;;18.88;9.65;;;;;;;;;;5013716;28;20627;-72
2021/07/30 09:27:07;;;;;;;21.52;8.93;;;;;;;;;;5017977;28;20105;-73
2021/07/30 09:29:33;;;;;;;23.13;10.25;;;;;;;;;;5017226;28;20120;-73
2021/07/30 09:32:16;;;;;;;18.35;9.52;;;;;;;;;;5020953;28;20021;-74
2021/07/30 09:34:44;;;;;;;24.70;10.15;;;;;;;;;;5017130;28;20041;-73
2021/07/30 09:37:14;;;;;;;18.73;10.07;;;;;;;;;;5020418;28;20033;-73
2021/07/30 09:39:41;;;;;;;21.58;10.13;;;;;;;;;;5019939;28;20616;-72
2021/07/30 09:42:14;;;;;;;15.68;8.80;;;;;;;;;;5021058;28;20482;-73
2021/07/30 09:45:03;;;;;;;17.25;9.05;;;;;;;;;;5016137;28;20117;-72
2021/07/30 09:47:34;;;;;;;25.92;10.50;;;;;;;;;;5018600;28;20115;-72
2021/07/30 09:50:04;;;;;;;19.58;9.73;;;;;;;;;;5011808;28;20153;-73
2021/07/30 09:52:34;;;;;;;28.77;9.98;;;;;;;;;;5020227;28;20029;-72
2021/07/30 09:55:05;;;;;;;22.90;10.15;;;;;;;;;;5024250;28;20037;-72
2021/07/30 09:57:32;;;;;;;21.93;9.57;;;;;;;;;;5023661;28;20021;-72
2021/07/30 10:00:03;;;;;;;26.65;9.63;;;;;;;;;;5023642;28;20029;-72
2021/07/30 10:02:30;;;;;;;18.80;9.15;;;;;;;;;;5022427;28;20021;-72
2021/07/30 10:04:56;;;;;;;14.55;7.60;;;;;;;;;;5024225;28;20209;-72
2021/07/30 10:07:26;;;;;;;24.90;9.18;;;;;;;;;;5024297;28;20097;-72
2021/07/30 10:10:21;;;;;;;17.27;9.10;;;;;;;;;;5023570;28;20034;-72
2021/07/30 10:12:53;;;;;;;19.73;9.68;;;;;;;;;;5024009;28;20481;-73
2021/07/30 10:15:20;;;;;;;23.10;8.82;;;;;;;;;;5022768;28;20036;-72
2021/07/30 10:17:47;;;;;;;22.50;9.27;;;;;;;;;;5023702;28;20013;-72
2021/07/30 10:20:14;;;;;;;21.27;9.65;;;;;;;;;;5023417;28;20095;-73
2021/07/30 10:22:42;;;;;;;34.03;10.05;;;;;;;;;;5024367;28;20025;-72
2021/07/30 10:25:10;;;;;;;19.58;9.35;;;;;;;;;;5023721;28;20028;-72
2021/07/30 10:27:41;;;;;;;21.90;8.43;;;;;;;;;;5022392;28;20536;-71
2021/07/30 10:30:07;;;;;;;25.23;10.90;;;;;;;;;;5023816;28;20217;-71
2021/07/30 10:32:56;;;;;;;22.80;10.07;;;;;;;;;;5022405;28;20122;-72
2021/07/30 10:35:28;;;;;;;19.52;9.25;;;;;;;;;;5023793;28;20026;-71
2021/07/30 10:38:12;;;;;;;18.45;9.02;;;;;;;;;;5023297;28;20018;-71
2021/07/30 10:40:39;;;;;;;24.70;9.48;;;;;;;;;;5021353;28;20520;-71
2021/07/30 10:43:11;;;;;;;20.23;8.60;;;;;;;;;;5024162;28;20021;-71
2021/07/30 10:45:41;;;;;;;22.20;9.25;;;;;;;;;;5023740;28;20445;-71
2021/07/30 10:48:16;;;;;;;24.48;9.48;;;;;;;;;;5022822;28;20018;-71
2021/07/30 10:50:47;;;;;;;18.23;8.75;;;;;;;;;;5023657;28;20087;-71
2021/07/30 10:53:34;;;;;;;18.92;8.63;;;;;;;;;;5021993;28;20032;-71
2021/07/30 10:56:01;;;;;;;17.05;7.88;;;;;;;;;;5023337;28;20040;-71
2021/07/30 10:58:45;;;;;;;17.25;7.65;;;;;;;;;;5023548;28;20030;-71
2021/07/30 11:01:19;;;;;;;21.77;8.52;;;;;;;;;;5022094;28;20545;-71
2021/07/30 11:03:51;;;;;;;15.55;9.73;;;;;;;;;;5021899;28;20044;-71
2021/07/30 11:06:28;;;;;;;18.70;9.20;;;;;;;;;;5022902;28;20053;-71
2021/07/30 11:09:00;;;;;;;24.50;9.30;;;;;;;;;;5023259;28;20535;-71
2021/07/30 11:11:42;;;;;;;20.50;8.38;;;;;;;;;;5023262;28;20040;-71
2021/07/30 11:14:11;;;;;;;23.95;8.25;;;;;;;;;;5023112;28;20068;-71
2021/07/30 11:16:37;;;;;;;19.08;8.95;;;;;;;;;;5021299;28;20044;-71
2021/07/30 11:19:07;;;;;;;17.40;7.90;;;;;;;;;;5022887;28;20112;-71
2021/07/30 11:21:33;;;;;;;23.70;8.93;;;;;;;;;;5022929;28;20095;-71
2021/07/30 11:24:00;;;;;;;18.58;7.60;;;;;;;;;;5022509;28;20044;-71
2021/07/30 11:26:26;;;;;;;18.60;8.52;;;;;;;;;;5021105;28;20382;-71
2021/07/30 11:28:52;;;;;;;16.33;8.18;;;;;;;;;;5022537;28;20030;-71
2021/07/30 11:31:19;;;;;;;21.30;9.15;;;;;;;;;;5022582;28;20037;-71
2021/07/30 11:33:45;;;;;;;23.70;9.30;;;;;;;;;;5022562;28;20250;-71
2021/07/30 11:36:12;;;;;;;15.00;8.00;;;;;;;;;;5023150;28;20021;-71
2021/07/30 11:38:54;;;;;;;21.95;8.95;;;;;;;;;;5022391;28;20282;-71
2021/07/30 11:41:21;;;;;;;22.60;8.48;;;;;;;;;;5022109;28;20029;-71
2021/07/30 11:44:04;;;;;;;27.13;9.60;;;;;;;;;;5022549;28;20033;-71
2021/07/30 11:46:31;;;;;;;20.80;8.50;;;;;;;;;;5022410;28;20478;-71
2021/07/30 11:48:57;;;;;;;24.13;8.63;;;;;;;;;;5021837;28;20029;-71
2021/07/30 11:51:24;;;;;;;21.77;9.13;;;;;;;;;;5022575;28;20086;-71
2021/07/30 11:53:51;;;;;;;20.13;8.10;;;;;;;;;;5020874;28;20056;-71
2021/07/30 11:56:17;;;;;;;31.45;8.57;;;;;;;;;;5022061;28;20589;-71
2021/07/30 11:58:57;;;;;;;20.23;8.65;;;;;;;;;;5022306;28;20029;-71
2021/07/30 12:01:23;;;;;;;19.08;8.85;;;;;;;;;;5022285;28;20036;-71
2021/07/30 12:04:08;;;;;;;22.38;9.18;;;;;;;;;;5022521;28;20036;-71
2021/07/30 12:06:45;;;;;;;18.50;7.72;;;;;;;;;;5020233;28;20378;-71
2021/07/30 12:09:12;;;;;;;22.23;8.90;;;;;;;;;;5021569;28;20033;-70
2021/07/30 12:11:39;;;;;;;21.52;8.40;;;;;;;;;;5017185;28;20604;-70
2021/07/30 12:14:08;;;;;;;17.30;8.25;;;;;;;;;;5021789;28;20034;-70
2021/07/30 12:16:35;;;;;;;26.00;8.27;;;;;;;;;;5019339;28;20040;-71
2021/07/30 12:19:01;;;;;;;43.58;17.67;;;;;;;;;;5022277;28;20029;-71
2021/07/30 12:21:27;;;;;;;21.48;8.90;;;;;;;;;;5021694;28;20065;-77
2021/07/30 12:24:04;;;;;;;17.20;8.05;;;;;;;;;;5019820;28;20029;-72
2021/07/30 12:26:33;;;;;;;21.38;9.02;;;;;;;;;;5021563;28;20499;-72
2021/07/30 12:29:00;;;;;;;19.33;9.02;;;;;;;;;;5022068;28;20041;-70
2021/07/30 12:31:26;;;;;;;18.85;8.43;;;;;;;;;;5020270;28;20013;-71
2021/07/30 12:34:11;;;;;;;24.65;8.52;;;;;;;;;;5021320;28;20104;-72
2021/07/30 12:36:37;;;;;;;19.77;8.23;;;;;;;;;;5019724;28;20030;-71
2021/07/30 12:39:05;;;;;;;23.67;8.40;;;;;;;;;;5021595;28;20033;-71
2021/07/30 12:41:33;;;;;;;25.23;8.48;;;;;;;;;;5021917;28;20858;-71
2021/07/30 12:44:09;;;;;;;15.00;8.60;;;;;;;;;;5019045;28;20056;-72
2021/07/30 12:46:37;;;;;;;21.85;9.02;;;;;;;;;;5021450;28;20021;-71
2021/07/30 12:49:04;;;;;;;22.20;8.75;;;;;;;;;;5021472;28;20638;-71
2021/07/30 12:51:31;;;;;;;18.88;7.80;;;;;;;;;;5020771;28;20478;-71
2021/07/30 12:54:01;;;;;;;15.05;8.13;;;;;;;;;;5021767;28;20037;-72
2021/07/30 12:56:33;;;;;;;22.63;8.95;;;;;;;;;;5021707;28;20084;-72
2021/07/30 12:59:00;;;;;;;21.27;8.95;;;;;;;;;;5020856;28;20029;-72
2021/07/30 13:01:27;;;;;;;21.38;8.68;;;;;;;;;;5020996;28;20041;-72
2021/07/30 13:04:00;;;;;;;21.52;8.82;;;;;;;;;;5019030;28;20458;-72
2021/07/30 13:06:26;;;;;;;18.92;7.90;;;;;;;;;;5016963;28;20045;-73
2021/07/30 13:08:52;;;;;;;13.95;8.23;;;;;;;;;;5018946;28;20033;-73
2021/07/30 13:11:20;;;;;;;19.05;8.50;;;;;;;;;;5017653;28;20029;-73
2021/07/30 13:13:46;;;;;;;17.90;7.43;;;;;;;;;;5020343;28;20375;-72
2021/07/30 13:16:14;;;;;;;25.23;8.38;;;;;;;;;;5018454;28;20042;-73
2021/07/30 13:18:40;;;;;;;19.73;7.68;;;;;;;;;;5019536;28;20467;-72
2021/07/30 13:21:06;;;;;;;14.82;7.75;;;;;;;;;;5019412;28;20049;-73
2021/07/30 13:23:32;;;;;;;21.88;8.20;;;;;;;;;;5020192;28;20053;-73
2021/07/30 13:25:58;;;;;;;19.63;8.60;;;;;;;;;;5023043;28;20064;-72
2021/07/30 13:28:24;;;;;;;24.88;9.32;;;;;;;;;;5022881;28;20025;-73
2021/07/30 13:30:57;;;;;;;16.85;7.50;;;;;;;;;;5025125;28;20056;-72
2021/07/30 13:33:23;;;;;;;17.55;7.55;;;;;;;;;;5023250;28;20035;-73
2021/07/30 13:35:50;;;;;;;25.17;9.68;;;;;;;;;;5024362;28;20030;-73
2021/07/30 13:38:16;;;;;;;21.42;8.85;;;;;;;;;;5024010;28;20018;-73
2021/07/30 13:40:42;;;;;;;19.58;7.88;;;;;;;;;;5023388;28;20235;-73
2021/07/30 13:43:09;;;;;;;15.55;7.60;;;;;;;;;;5024124;28;20079;-73
2021/07/30 13:45:35;;;;;;;18.73;8.45;;;;;;;;;;5023925;28;20398;-73
2021/07/30 13:48:01;;;;;;;16.30;7.90;;;;;;;;;;5022551;28;20028;-73
2021/07/30 13:50:28;;;;;;;19.38;8.13;;;;;;;;;;5023611;28;20026;-73
2021/07/30 13:52:54;;;;;;;19.08;7.60;;;;;;;;;;5023573;28;20041;-73
2021/07/30 13:55:20;;;;;;;18.40;9.13;;;;;;;;;;5024339;28;20107;-74
2021/07/30 13:57:46;;;;;;;20.20;9.38;;;;;;;;;;5022072;28;20077;-73
2021/07/30 14:00:13;;;;;;;16.08;8.27;;;;;;;;;;5023873;28;20212;-72
2021/07/30 14:02:39;;;;;;;20.88;9.27;;;;;;;;;;5024014;28;20037;-73
2021/07/30 14:05:05;;;;;;;16.02;8.40;;;;;;;;;;5023826;28;20036;-72
2021/07/30 14:07:31;;;;;;;23.27;10.27;;;;;;;;;;5023458;28;20033;-73
2021/07/30 14:09:57;;;;;;;14.15;8.48;;;;;;;;;;5023553;28;20021;-73
2021/07/30 14:12:23;;;;;;;14.52;9.57;;;;;;;;;;5022207;28;20025;-73
2021/07/30 14:14:50;;;;;;;18.77;9.55;;;;;;;;;;5024074;28;20037;-73
2021/07/30 14:17:16;;;;;;;17.88;9.25;;;;;;;;;;5023915;28;20080;-73
2021/07/30 14:19:42;;;;;;;19.42;9.75;;;;;;;;;;5022863;28;20049;-73
2021/07/30 14:22:09;;;;;;;21.23;9.73;;;;;;;;;;5023507;28;20103;-72
2021/07/30 14:24:35;;;;;;;16.70;10.50;;;;;;;;;;5022548;28;20507;-72
2021/07/30 14:27:01;;;;;;;22.42;10.48;;;;;;;;;;5021132;28;20022;-72